createdAt,value
2018-06-17T00:00:47.220Z,101225.29
2018-06-17T00:03:16.624Z,101222.24
2018-06-17T00:05:46.689Z,101227.06
2018-06-17T00:08:16.076Z,101222.69
2018-06-17T00:10:45.591Z,101220.83
2018-06-17T00:13:15.617Z,101222.52
2018-06-17T00:15:45.030Z,101221.19
2018-06-17T00:18:14.586Z,101224.80
2018-06-17T00:20:44.347Z,101205.92
2018-06-17T00:23:13.808Z,101209.83
2018-06-17T00:25:43.242Z,101211.67
2018-06-17T00:28:13.112Z,101212.56
2018-06-17T00:30:42.528Z,101206.86
2018-06-17T00:33:11.981Z,101210.44
2018-06-17T00:35:42.272Z,101201.16
2018-06-17T00:38:11.661Z,101201.60
2018-06-17T00:40:41.371Z,101207.83
2018-06-17T00:43:11.314Z,101201.69
2018-06-17T00:45:40.815Z,101197.30
2018-06-17T00:48:10.180Z,101198.16
2018-06-17T00:50:39.931Z,101195.50
2018-06-17T00:53:09.532Z,101189.31
2018-06-17T00:55:39.057Z,101186.75
2018-06-17T00:58:08.767Z,101180.59
2018-06-17T01:00:38.394Z,101185.06
2018-06-17T01:03:07.956Z,101181.45
2018-06-17T01:05:37.620Z,101182.41
2018-06-17T01:08:07.408Z,101183.16
2018-06-17T01:10:36.963Z,101184.89
2018-06-17T01:13:06.774Z,101185.86
2018-06-17T01:15:36.556Z,101184.84
2018-06-17T01:18:05.970Z,101173.45
2018-06-17T01:20:35.733Z,101170.84
2018-06-17T01:23:05.412Z,101173.88
2018-06-17T01:25:34.706Z,101167.30
2018-06-17T01:28:04.763Z,101174.41
2018-06-17T01:30:34.611Z,101167.30
2018-06-17T01:33:04.193Z,101167.78
2018-06-17T01:35:33.858Z,101177.06
2018-06-17T01:38:03.463Z,101170.75
2018-06-17T01:40:33.077Z,101164.12
2018-06-17T01:43:02.967Z,101162.00
2018-06-17T01:45:32.916Z,101170.80
2018-06-17T01:48:02.336Z,101169.95
2018-06-17T01:50:31.886Z,101167.25
2018-06-17T01:53:01.554Z,101163.81
2018-06-17T01:55:31.195Z,101163.84
2018-06-17T01:58:00.874Z,101158.55
2018-06-17T02:00:30.848Z,101161.65
2018-06-17T02:03:04.320Z,101148.34
2018-06-17T02:05:39.515Z,101143.48
2018-06-17T02:08:14.195Z,101146.23
2018-06-17T02:10:49.023Z,101146.23
2018-06-17T02:13:18.526Z,101154.18
2018-06-17T02:15:48.070Z,101164.34
2018-06-17T02:18:17.367Z,101167.92
2018-06-17T02:20:47.999Z,101161.30
2018-06-17T02:23:17.585Z,101160.37
2018-06-17T02:25:46.920Z,101153.25
2018-06-17T02:28:16.514Z,101162.56
2018-06-17T02:30:46.283Z,101167.34
2018-06-17T02:33:15.822Z,101160.33
2018-06-17T02:35:45.502Z,101156.88
2018-06-17T02:38:15.013Z,101152.05
2018-06-17T02:40:44.654Z,101154.75
2018-06-17T02:43:14.368Z,101144.95
2018-06-17T02:45:49.042Z,101166.59
2018-06-17T02:48:23.734Z,101155.02
2018-06-17T02:50:58.182Z,101155.02
2018-06-17T02:53:32.929Z,101157.62
2018-06-17T02:56:02.706Z,101155.02
2018-06-17T02:58:32.367Z,101152.72
2018-06-17T03:01:01.784Z,101147.81
2018-06-17T03:03:31.399Z,101143.44
2018-06-17T03:06:01.164Z,101142.63
2018-06-17T03:08:30.740Z,101130.66
2018-06-17T03:11:00.520Z,101130.23
2018-06-17T03:13:29.881Z,101123.20
2018-06-17T03:15:59.357Z,101122.22
2018-06-17T03:18:29.059Z,101128.31
2018-06-17T03:20:58.243Z,101130.92
2018-06-17T03:23:27.669Z,101132.73
2018-06-17T03:26:02.630Z,101131.77
2018-06-17T03:28:37.146Z,101122.92
2018-06-17T03:31:11.830Z,101123.81
2018-06-17T03:33:48.686Z,101121.99
2018-06-17T03:36:18.465Z,101109.70
2018-06-17T03:38:47.867Z,101095.62
2018-06-17T03:41:17.644Z,101101.70
2018-06-17T03:43:47.031Z,101095.52
2018-06-17T03:46:16.457Z,101097.03
2018-06-17T03:48:46.443Z,101087.31
2018-06-17T03:51:15.743Z,101089.43
2018-06-17T03:53:45.207Z,101086.91
2018-06-17T03:56:15.528Z,101091.19
2018-06-17T03:58:44.980Z,101076.26
2018-06-17T04:01:14.750Z,101086.33
2018-06-17T04:03:44.373Z,101080.28
2018-06-17T04:06:13.691Z,101082.45
2018-06-17T04:08:43.509Z,101070.87
2018-06-17T04:11:13.238Z,101074.30
2018-06-17T04:13:42.759Z,101079.60
2018-06-17T04:16:12.496Z,101083.05
2018-06-17T04:18:42.102Z,101074.20
2018-06-17T04:21:11.523Z,101077.69
2018-06-17T04:23:41.405Z,101074.16
2018-06-17T04:26:10.932Z,101070.66
2018-06-17T04:28:40.362Z,101077.34
2018-06-17T04:31:10.034Z,101069.25
2018-06-17T04:33:39.805Z,101066.59
2018-06-17T04:36:09.470Z,101062.61
2018-06-17T04:38:38.845Z,101064.81
2018-06-17T04:41:08.465Z,101056.47
2018-06-17T04:43:38.191Z,101052.98
2018-06-17T04:46:07.590Z,101053.82
2018-06-17T04:48:37.179Z,101053.62
2018-06-17T04:51:06.382Z,101046.45
2018-06-17T04:53:35.724Z,101040.25
2018-06-17T04:56:05.379Z,101056.02
2018-06-17T04:58:35.214Z,101051.21
2018-06-17T05:01:04.648Z,101044.51
2018-06-17T05:03:34.243Z,101034.91
2018-06-17T05:06:03.857Z,101038.38
2018-06-17T05:08:33.443Z,101041.20
2018-06-17T05:11:03.055Z,101047.89
2018-06-17T05:13:34.829Z,101056.29
2018-06-17T05:16:06.641Z,101050.43
2018-06-17T05:18:41.469Z,101047.41
2018-06-17T05:21:17.734Z,101042.93
2018-06-17T05:23:47.573Z,101047.67
2018-06-17T05:26:17.498Z,101041.44
2018-06-17T05:28:47.029Z,101034.41
2018-06-17T05:31:16.877Z,101036.67
2018-06-17T05:33:46.967Z,101032.31
2018-06-17T05:36:16.805Z,101038.00
2018-06-17T05:38:46.282Z,101034.95
2018-06-17T05:41:16.371Z,101039.66
2018-06-17T05:43:47.069Z,101037.00
2018-06-17T05:46:16.659Z,101032.09
2018-06-17T05:48:46.551Z,101044.47
2018-06-17T05:51:16.162Z,101042.11
2018-06-17T05:53:45.985Z,101035.84
2018-06-17T05:56:16.098Z,101032.08
2018-06-17T05:58:45.806Z,101024.60
2018-06-17T06:01:15.406Z,101031.14
2018-06-17T06:03:44.976Z,100786.89
2018-06-17T06:06:14.316Z,101037.02
2018-06-17T06:08:43.888Z,101025.99
2018-06-17T06:11:13.456Z,101024.17
2018-06-17T06:13:42.789Z,101025.05
2018-06-17T06:16:12.276Z,101026.89
2018-06-17T06:18:41.841Z,101027.72
2018-06-17T06:21:11.174Z,100997.53
2018-06-17T06:23:40.881Z,101019.75
2018-06-17T06:26:10.386Z,101020.52
2018-06-17T06:28:39.829Z,101028.48
2018-06-17T06:31:09.484Z,101023.67
2018-06-17T06:33:39.073Z,101029.54
2018-06-17T06:36:08.646Z,101036.18
2018-06-17T06:38:38.154Z,101033.25
2018-06-17T06:41:07.725Z,101042.20
2018-06-17T06:43:37.196Z,101035.28
2018-06-17T06:46:06.858Z,101035.23
2018-06-17T06:48:36.490Z,101037.05
2018-06-17T06:51:05.835Z,101031.42
2018-06-17T06:53:35.397Z,101023.89
2018-06-17T06:56:05.442Z,101020.19
2018-06-17T06:58:34.823Z,101025.56
2018-06-17T07:01:05.133Z,101020.85
2018-06-17T07:03:45.546Z,101009.85
2018-06-17T07:06:25.964Z,101009.76
2018-06-17T07:09:06.514Z,101015.83
2018-06-17T07:11:36.457Z,101009.98
2018-06-17T07:14:06.129Z,101012.45
2018-06-17T07:16:46.429Z,101014.55
2018-06-17T07:19:16.052Z,101009.01
2018-06-17T07:21:45.530Z,101015.73
2018-06-17T07:24:15.428Z,101014.76
2018-06-17T07:26:56.873Z,101012.70
2018-06-17T07:29:38.257Z,101015.33
2018-06-17T07:32:08.049Z,101015.14
2018-06-17T07:34:37.733Z,101014.97
2018-06-17T07:37:07.229Z,101014.77
2018-06-17T07:41:45.691Z,101015.39
2018-06-17T07:44:15.233Z,101017.37
2018-06-17T07:46:44.880Z,101014.09
2018-06-17T07:49:35.396Z,101013.11
2018-06-17T07:52:16.906Z,101019.69
2018-06-17T07:54:46.808Z,101019.18
2018-06-17T07:57:17.470Z,101020.77
2018-06-17T07:59:47.238Z,101015.62
2018-06-17T08:02:17.018Z,100998.73
2018-06-17T08:04:46.429Z,100994.42
2018-06-17T08:07:16.006Z,100989.93
2018-06-17T08:09:45.841Z,100988.02
2018-06-17T08:12:15.598Z,100980.30
2018-06-17T08:14:45.417Z,100989.25
2018-06-17T08:17:15.203Z,100991.09
2018-06-17T08:19:44.837Z,100987.92
2018-06-17T08:22:14.558Z,100988.69
2018-06-17T08:24:44.313Z,100985.66
2018-06-17T08:27:13.556Z,100986.61
2018-06-17T08:29:43.231Z,100996.41
2018-06-17T08:32:13.308Z,100989.84
2018-06-17T08:34:42.623Z,100976.63
2018-06-17T08:37:11.869Z,100984.95
2018-06-17T08:39:41.431Z,100988.81
2018-06-17T08:42:10.876Z,100990.16
2018-06-17T08:44:40.232Z,100991.67
2018-06-17T08:47:09.725Z,100983.34
2018-06-17T08:49:39.115Z,100989.21
2018-06-17T08:52:08.386Z,100981.19
2018-06-17T08:54:37.714Z,100983.77
2018-06-17T08:57:07.196Z,100982.87
2018-06-17T08:59:36.443Z,100981.92
2018-06-17T09:02:05.714Z,100977.55
2018-06-17T09:04:35.192Z,100976.30
2018-06-17T09:07:05.399Z,100970.34
2018-06-17T09:09:34.732Z,100960.25
2018-06-17T09:12:04.121Z,100964.50
2018-06-17T09:14:34.275Z,100817.84
2018-06-17T09:17:03.467Z,100962.30
2018-06-17T09:19:32.669Z,100962.38
2018-06-17T09:22:01.996Z,100957.86
2018-06-17T09:24:31.743Z,100956.45
2018-06-17T09:27:01.648Z,100960.23
2018-06-17T09:29:31.075Z,100962.09
2018-06-17T09:32:00.870Z,100953.68
2018-06-17T09:34:30.266Z,100954.19
2018-06-17T09:36:59.495Z,100952.55
2018-06-17T09:39:28.952Z,100952.94
2018-06-17T09:41:58.064Z,100949.06
2018-06-17T09:44:27.486Z,100959.80
2018-06-17T09:46:57.008Z,100951.38
2018-06-17T09:49:26.188Z,100950.98
2018-06-17T09:51:55.943Z,100945.31
2018-06-17T09:54:26.210Z,100947.66
2018-06-17T09:56:55.712Z,100941.41
2018-06-17T09:59:25.243Z,100932.45
2018-06-17T10:01:55.191Z,100928.85
2018-06-17T10:04:24.936Z,100923.14
2018-06-17T10:06:54.916Z,100928.78
2018-06-17T10:09:24.907Z,100915.63
2018-06-17T10:11:54.291Z,100914.20
2018-06-17T10:14:23.859Z,100908.37
2018-06-17T10:16:53.204Z,100907.90
2018-06-17T10:19:22.709Z,100902.07
2018-06-17T10:21:52.595Z,100895.74
2018-06-17T10:24:22.426Z,100896.04
2018-06-17T10:26:51.776Z,100896.27
2018-06-17T10:29:21.281Z,100899.83
2018-06-17T10:31:50.757Z,100902.81
2018-06-17T10:34:20.141Z,100898.39
2018-06-17T10:36:49.920Z,100901.37
2018-06-17T10:39:19.744Z,100898.01
2018-06-17T10:41:49.679Z,100787.84
2018-06-17T10:44:19.344Z,100866.89
2018-06-17T10:46:48.799Z,100888.28
2018-06-17T10:49:18.466Z,100891.65
2018-06-17T10:51:47.934Z,100892.11
2018-06-17T10:54:17.433Z,100888.13
2018-06-17T10:56:47.344Z,100895.03
2018-06-17T10:59:16.831Z,100891.56
2018-06-17T11:01:47.310Z,100773.92
2018-06-17T11:04:16.736Z,100899.00
2018-06-17T11:06:46.403Z,100895.01
2018-06-17T11:09:16.717Z,100899.91
2018-06-17T11:11:46.070Z,100903.45
2018-06-17T11:14:15.369Z,100896.91
2018-06-17T11:16:44.922Z,100894.50
2018-06-17T11:19:14.180Z,100901.15
2018-06-17T11:21:43.585Z,100899.29
2018-06-17T11:24:13.462Z,100899.38
2018-06-17T11:26:42.680Z,100901.27
2018-06-17T11:29:11.910Z,100898.46
2018-06-17T11:31:41.633Z,100898.20
2018-06-17T11:34:11.055Z,100894.94
2018-06-17T11:36:40.613Z,100898.56
2018-06-17T11:39:10.509Z,100891.95
2018-06-17T11:41:39.588Z,100895.52
2018-06-17T11:44:09.041Z,100902.85
2018-06-17T11:46:38.540Z,100902.89
2018-06-17T11:49:08.119Z,100907.91
2018-06-17T11:51:37.340Z,100911.47
2018-06-17T11:54:06.816Z,100907.11
2018-06-17T11:56:36.281Z,100909.39
2018-06-17T11:59:05.706Z,100904.55
2018-06-17T12:01:35.423Z,100908.45
2018-06-17T12:04:04.811Z,100910.14
2018-06-17T12:06:33.963Z,100912.45
2018-06-17T12:09:03.659Z,100913.62
2018-06-17T12:11:33.415Z,100797.88
2018-06-17T12:14:02.719Z,100918.48
2018-06-17T12:16:32.514Z,100913.90
2018-06-17T12:19:02.884Z,100917.24
2018-06-17T12:21:32.381Z,100915.23
2018-06-17T12:24:02.327Z,100915.02
2018-06-17T12:26:31.995Z,100915.02
2018-06-17T12:29:01.458Z,100916.02
2018-06-17T12:31:31.253Z,100911.95
2018-06-17T12:34:01.197Z,100903.09
2018-06-17T12:36:30.673Z,100911.91
2018-06-17T12:39:00.165Z,100910.19
2018-06-17T12:41:29.555Z,100926.58
2018-06-17T12:43:59.016Z,100933.59
2018-06-17T12:46:28.781Z,100921.59
2018-06-17T12:48:58.427Z,100923.66
2018-06-17T12:51:28.006Z,100935.55
2018-06-17T12:53:57.773Z,100954.84
2018-06-17T12:56:28.067Z,100981.33
2018-06-17T12:58:57.529Z,100994.51
2018-06-17T13:01:27.240Z,100990.09
2018-06-17T13:03:57.011Z,100979.70
2018-06-17T13:06:26.978Z,100983.84
2018-06-17T13:08:56.947Z,100972.20
2018-06-17T13:11:26.700Z,100965.36
2018-06-17T13:13:56.388Z,100970.64
2018-06-17T13:16:26.121Z,100972.53
2018-06-17T13:18:56.092Z,100963.72
2018-06-17T13:21:25.886Z,100956.59
2018-06-17T13:23:55.394Z,100942.25
2018-06-17T13:26:25.261Z,100930.90
2018-06-17T13:28:55.008Z,100943.50
2018-06-17T13:31:24.647Z,100944.91
2018-06-17T13:33:54.166Z,100953.59
2018-06-17T13:36:24.021Z,100967.42
2018-06-17T13:38:53.486Z,100973.75
2018-06-17T13:41:23.541Z,100978.52
2018-06-17T13:43:53.242Z,100942.59
2018-06-17T13:46:22.591Z,100967.62
2018-06-17T13:48:52.438Z,100966.17
2018-06-17T13:51:22.171Z,100974.04
2018-06-17T13:53:51.724Z,100974.72
2018-06-17T13:56:21.514Z,100966.52
2018-06-17T13:58:51.225Z,100963.58
2018-06-17T14:01:20.982Z,100964.16
2018-06-17T14:03:50.762Z,100963.03
2018-06-17T14:06:20.303Z,100971.37
2018-06-17T14:08:49.803Z,100946.64
2018-06-17T14:11:19.844Z,100966.70
2018-06-17T14:13:49.650Z,100978.83
2018-06-17T14:16:19.277Z,100979.22
2018-06-17T14:18:48.847Z,100981.70
2018-06-17T14:21:19.095Z,100982.67
2018-06-17T14:23:48.820Z,100979.95
2018-06-17T14:26:18.781Z,100984.23
2018-06-17T14:28:48.695Z,100981.70
2018-06-17T14:31:18.299Z,100984.38
2018-06-17T14:33:48.049Z,100992.20
2018-06-17T14:36:17.771Z,100991.98
2018-06-17T14:38:47.278Z,100993.25
2018-06-17T14:41:19.461Z,100990.30
2018-06-17T14:43:54.045Z,100994.59
2018-06-17T14:46:28.515Z,100989.08
2018-06-17T14:49:03.252Z,100994.20
2018-06-17T14:51:37.886Z,100991.17
2018-06-17T14:54:08.249Z,101001.22
2018-06-17T14:56:37.659Z,101001.00
2018-06-17T14:59:07.190Z,100973.04
2018-06-17T15:01:37.192Z,101003.16
2018-06-17T15:04:07.064Z,101010.84
2018-06-17T15:06:37.015Z,101008.92
2018-06-17T15:09:09.488Z,101018.75
2018-06-17T15:11:39.520Z,101017.71
2018-06-17T15:14:09.659Z,101009.84
2018-06-17T15:16:40.624Z,101015.17
2018-06-17T15:19:10.317Z,101014.66
2018-06-17T15:21:40.197Z,101018.33
2018-06-17T15:24:10.427Z,101025.52
2018-06-17T15:26:40.284Z,101023.02
2018-06-17T15:29:10.583Z,101026.43
2018-06-17T15:31:45.125Z,101031.03
2018-06-17T15:34:19.778Z,101028.47
2018-06-17T15:36:54.542Z,101034.73
2018-06-17T15:39:29.598Z,101037.45
2018-06-17T15:41:59.512Z,101024.98
2018-06-17T15:44:29.417Z,101018.63
2018-06-17T15:46:59.151Z,101012.25
2018-06-17T15:49:28.958Z,101021.86
2018-06-17T15:51:58.636Z,101043.16
2018-06-17T15:54:28.134Z,101079.08
2018-06-17T15:56:57.788Z,101119.42
2018-06-17T15:59:27.558Z,101098.55
2018-06-17T16:01:57.378Z,101113.62
2018-06-17T16:04:27.174Z,101103.41
2018-06-17T16:06:56.935Z,101098.25
2018-06-17T16:09:27.046Z,101097.91
2018-06-17T16:12:01.597Z,101092.06
2018-06-17T16:14:36.045Z,101089.65
2018-06-17T16:17:12.180Z,101082.88
2018-06-17T16:19:46.996Z,101089.77
2018-06-17T16:22:17.349Z,101082.41
2018-06-17T16:24:47.102Z,101069.96
2018-06-17T16:27:16.996Z,101075.00
2018-06-17T16:29:47.260Z,101063.31
2018-06-17T16:32:16.571Z,101072.47
2018-06-17T16:34:46.733Z,101069.52
2018-06-17T16:37:16.365Z,101070.24
2018-06-17T16:39:45.756Z,101055.50
2018-06-17T16:42:15.450Z,101068.95
2018-06-17T16:44:45.101Z,101075.78
2018-06-17T16:47:14.374Z,101080.46
2018-06-17T16:49:44.324Z,101077.02
2018-06-17T16:52:18.590Z,101083.88
2018-06-17T16:54:53.163Z,101086.05
2018-06-17T16:57:27.472Z,101090.59
2018-06-17T17:00:01.897Z,101088.34
2018-06-17T17:02:31.147Z,101089.92
2018-06-17T17:05:01.044Z,101097.64
2018-06-17T17:07:30.353Z,101086.24
2018-06-17T17:09:59.843Z,101096.58
2018-06-17T17:12:29.252Z,101091.31
2018-06-17T17:14:58.646Z,101092.33
2018-06-17T17:17:28.271Z,101095.27
2018-06-17T17:19:58.107Z,101103.98
2018-06-17T17:22:27.363Z,101095.45
2018-06-17T17:24:56.473Z,101091.88
2018-06-17T17:27:25.935Z,101094.53
2018-06-17T17:29:55.288Z,101095.20
2018-06-17T17:32:29.703Z,101096.51
2018-06-17T17:35:04.200Z,101100.39
2018-06-17T17:37:38.548Z,101099.69
2018-06-17T17:40:13.136Z,101098.05
2018-06-17T17:42:42.575Z,101105.95
2018-06-17T17:45:16.775Z,101109.27
2018-06-17T17:47:46.446Z,101104.84
2018-06-17T17:50:16.245Z,101105.61
2018-06-17T17:52:45.767Z,101111.75
2018-06-17T17:55:15.687Z,101115.13
2018-06-17T17:57:45.363Z,101034.25
2018-06-17T18:00:14.965Z,101113.42
2018-06-17T18:02:44.867Z,101121.55
2018-06-17T18:05:14.659Z,101122.38
2018-06-17T18:07:44.257Z,101122.66
2018-06-17T18:10:14.192Z,101123.38
2018-06-17T18:12:43.760Z,101123.02
2018-06-17T18:15:12.951Z,101127.27
2018-06-17T18:17:42.791Z,101130.06
2018-06-17T18:20:12.828Z,101124.28
2018-06-17T18:22:42.398Z,101119.30
2018-06-17T18:25:16.853Z,101125.97
2018-06-17T18:27:51.706Z,101126.36
2018-06-17T18:30:25.984Z,101131.28
2018-06-17T18:33:00.607Z,101127.98
2018-06-17T18:35:35.846Z,101133.44
2018-06-17T18:38:05.591Z,101134.67
2018-06-17T18:40:35.561Z,101146.72
2018-06-17T18:43:05.102Z,101137.02
2018-06-17T18:45:34.855Z,101141.44
2018-06-17T18:48:04.611Z,101137.33
2018-06-17T18:50:34.440Z,101133.84
2018-06-17T18:53:04.264Z,101139.66
2018-06-17T18:55:33.778Z,101136.09
2018-06-17T18:58:03.653Z,101135.61
2018-06-17T19:00:33.234Z,101139.48
2018-06-17T19:03:02.823Z,101135.61
2018-06-17T19:05:33.152Z,101135.23
2018-06-17T19:08:02.225Z,101135.67
2018-06-17T19:10:37.227Z,101139.73
2018-06-17T19:13:12.032Z,101138.06
2018-06-17T19:15:46.544Z,101141.33
2018-06-17T19:18:16.603Z,101135.96
2018-06-17T19:20:46.469Z,101138.62
2018-06-17T19:23:16.130Z,101136.40
2018-06-17T19:25:45.718Z,101137.67
2018-06-17T19:28:15.486Z,101025.86
2018-06-17T19:30:45.048Z,101140.78
2018-06-17T19:33:14.885Z,101137.78
2018-06-17T19:35:44.870Z,101141.77
2018-06-17T19:38:14.455Z,101138.37
2018-06-17T19:40:44.333Z,101144.53
2018-06-17T19:43:14.406Z,101143.75
2018-06-17T19:45:43.990Z,101139.43
2018-06-17T19:48:13.860Z,101144.69
2018-06-17T19:51:52.187Z,101138.37
2018-06-17T19:54:26.873Z,101152.94
2018-06-17T19:57:01.543Z,101151.49
2018-06-17T19:59:36.305Z,101152.39
2018-06-17T20:02:06.181Z,101157.74
2018-06-17T20:04:36.074Z,101160.41
2018-06-17T20:07:05.570Z,101166.76
2018-06-17T20:09:35.148Z,101171.17
2018-06-17T20:12:04.886Z,101167.53
2018-06-17T20:14:34.324Z,101171.23
2018-06-17T20:17:04.046Z,101164.41
2018-06-17T20:19:34.142Z,101177.48
2018-06-17T20:22:03.736Z,101171.64
2018-06-17T20:24:33.874Z,101185.16
2018-06-17T20:27:03.866Z,101181.26
2018-06-17T20:29:33.671Z,101185.29
2018-06-17T20:34:44.725Z,101196.80
2018-06-17T20:37:19.393Z,101195.38
2018-06-17T20:39:57.392Z,101193.66
2018-06-17T20:42:32.961Z,101191.88
2018-06-17T20:45:02.900Z,101198.97
2018-06-17T20:47:32.891Z,101199.45
2018-06-17T20:50:02.694Z,101197.72
2018-06-17T20:52:33.039Z,101202.54
2018-06-17T20:55:02.817Z,101197.23
2018-06-17T20:57:32.884Z,101198.56
2018-06-17T21:00:02.494Z,101207.06
2018-06-17T21:02:32.223Z,101205.53
2018-06-17T21:05:02.270Z,101201.95
2018-06-17T21:07:32.748Z,101204.55
2018-06-17T21:10:02.300Z,101210.25
2018-06-17T21:12:31.873Z,101219.48
2018-06-17T21:15:06.227Z,101219.59
2018-06-17T21:17:35.938Z,101214.38
2018-06-17T21:21:10.266Z,101213.58
2018-06-17T21:23:45.032Z,101213.58
2018-06-17T21:26:19.722Z,101212.65
2018-06-17T21:28:49.946Z,101217.07
2018-06-17T21:31:19.450Z,101214.02
2018-06-17T21:33:48.978Z,101222.42
2018-06-17T21:36:18.918Z,101225.52
2018-06-17T21:38:48.833Z,101220.70
2018-06-17T21:41:18.307Z,101218.97
2018-06-17T21:43:48.238Z,101219.91
2018-06-17T21:46:17.938Z,101221.67
2018-06-17T21:48:47.384Z,101222.52
2018-06-17T21:51:17.056Z,101218.97
2018-06-17T21:53:47.069Z,101223.30
2018-06-17T21:56:16.512Z,101226.89
2018-06-17T21:58:48.498Z,101224.59
2018-06-17T22:01:19.339Z,101212.74
2018-06-17T22:03:49.159Z,101223.22
2018-06-17T22:06:18.983Z,101223.62
2018-06-17T22:08:53.670Z,101229.02
2018-06-17T22:11:28.305Z,101225.47
2018-06-17T22:14:02.941Z,101229.45
2018-06-17T22:16:37.720Z,101227.41
2018-06-17T22:19:07.762Z,101230.95
2018-06-17T22:21:37.755Z,101231.39
2018-06-17T22:24:07.432Z,101227.81
2018-06-17T22:26:37.139Z,101228.83
2018-06-17T22:29:06.635Z,101234.30
2018-06-17T22:31:36.496Z,101232.45
2018-06-17T22:34:06.405Z,101236.79
2018-06-17T22:36:35.942Z,101234.19
2018-06-17T22:39:07.889Z,101233.78
2018-06-17T22:41:37.717Z,101230.25
2018-06-17T22:44:07.295Z,101238.64
2018-06-17T22:46:36.917Z,101243.51
2018-06-17T22:49:06.529Z,101236.95
2018-06-17T22:51:36.356Z,101242.27
2018-06-17T22:54:16.920Z,101239.66
2018-06-17T22:56:51.559Z,101243.31
2018-06-17T22:59:25.744Z,101240.27
2018-06-17T23:02:01.097Z,101242.39
2018-06-17T23:04:35.518Z,101244.20
2018-06-17T23:07:10.446Z,101245.00
2018-06-17T23:09:41.915Z,101247.69
2018-06-17T23:12:11.943Z,101241.55
2018-06-17T23:14:41.854Z,101243.39
2018-06-17T23:17:12.320Z,101247.81
2018-06-17T23:19:41.913Z,101257.25
2018-06-17T23:22:11.827Z,101242.59
2018-06-17T23:24:41.610Z,101247.86
2018-06-17T23:27:10.947Z,101249.30
2018-06-17T23:29:40.628Z,101246.13
2018-06-17T23:32:10.422Z,101243.00
2018-06-17T23:34:39.782Z,101243.92
2018-06-17T23:37:09.362Z,101260.23
2018-06-17T23:39:39.186Z,101256.73
2018-06-17T23:42:08.711Z,101248.78
2018-06-17T23:44:38.448Z,101246.65
2018-06-17T23:47:13.099Z,101252.36
2018-06-17T23:49:47.625Z,101246.98
2018-06-17T23:52:22.535Z,101256.69
2018-06-17T23:54:57.362Z,101247.81
2018-06-17T23:57:27.064Z,101249.14
2018-06-17T23:59:56.753Z,101251.34
